sensor_id;sensor_type;location;lat;lon;timestamp;P1;durP1;ratioP1;P2;durP2;ratioP2
21943;SDS011;11136;48.778;9.126;2022-12-20T00:00:13;6.55;;;4.20;;
21943;SDS011;11136;48.778;9.126;2022-12-20T00:02:39;7.03;;;4.53;;
21943;SDS011;11136;48.778;9.126;2022-12-20T00:05:04;6.13;;;4.63;;
21943;SDS011;11136;48.778;9.126;2022-12-20T00:07:30;6.95;;;4.80;;
21943;SDS011;11136;48.778;9.126;2022-12-20T00:09:56;8.63;;;5.40;;
21943;SDS011;11136;48.778;9.126;2022-12-20T00:12:22;7.07;;;5.32;;
21943;SDS011;11136;48.778;9.126;2022-12-20T00:14:48;9.15;;;5.70;;
21943;SDS011;11136;48.778;9.126;2022-12-20T00:17:13;8.02;;;5.97;;
21943;SDS011;11136;48.778;9.126;2022-12-20T00:19:39;8.98;;;5.75;;
21943;SDS011;11136;48.778;9.126;2022-12-20T00:22:05;7.57;;;4.40;;
21943;SDS011;11136;48.778;9.126;2022-12-20T00:24:30;6.55;;;4.43;;
21943;SDS011;11136;48.778;9.126;2022-12-20T00:26:57;5.30;;;3.67;;
21943;SDS011;11136;48.778;9.126;2022-12-20T00:29:22;7.00;;;4.55;;
21943;SDS011;11136;48.778;9.126;2022-12-20T00:31:48;6.43;;;4.50;;
21943;SDS011;11136;48.778;9.126;2022-12-20T00:34:13;6.35;;;3.55;;
21943;SDS011;11136;48.778;9.126;2022-12-20T00:36:39;7.97;;;3.45;;
21943;SDS011;11136;48.778;9.126;2022-12-20T00:39:05;3.75;;;2.45;;
21943;SDS011;11136;48.778;9.126;2022-12-20T00:41:31;5.13;;;3.40;;
21943;SDS011;11136;48.778;9.126;2022-12-20T00:43:57;4.78;;;3.72;;
21943;SDS011;11136;48.778;9.126;2022-12-20T00:46:23;5.25;;;3.20;;
21943;SDS011;11136;48.778;9.126;2022-12-20T00:54:36;4.40;;;2.90;;
21943;SDS011;11136;48.778;9.126;2022-12-20T00:57:02;5.88;;;3.15;;
21943;SDS011;11136;48.778;9.126;2022-12-20T00:59:27;4.40;;;3.13;;
21943;SDS011;11136;48.778;9.126;2022-12-20T01:01:53;5.25;;;3.08;;
21943;SDS011;11136;48.778;9.126;2022-12-20T01:04:18;4.03;;;3.08;;
21943;SDS011;11136;48.778;9.126;2022-12-20T01:06:44;4.60;;;3.72;;
21943;SDS011;11136;48.778;9.126;2022-12-20T01:09:10;5.82;;;3.85;;
21943;SDS011;11136;48.778;9.126;2022-12-20T01:11:36;5.32;;;3.15;;
21943;SDS011;11136;48.778;9.126;2022-12-20T01:14:12;3.85;;;3.17;;
21943;SDS011;11136;48.778;9.126;2022-12-20T01:16:40;4.95;;;3.47;;
21943;SDS011;11136;48.778;9.126;2022-12-20T01:19:09;5.55;;;3.42;;
21943;SDS011;11136;48.778;9.126;2022-12-20T01:21:36;3.13;;;2.67;;
21943;SDS011;11136;48.778;9.126;2022-12-20T01:24:03;4.20;;;2.60;;
21943;SDS011;11136;48.778;9.126;2022-12-20T01:26:29;3.90;;;2.47;;
21943;SDS011;11136;48.778;9.126;2022-12-20T01:28:55;4.80;;;2.83;;
21943;SDS011;11136;48.778;9.126;2022-12-20T01:31:22;4.15;;;3.00;;
21943;SDS011;11136;48.778;9.126;2022-12-20T01:33:49;4.25;;;2.65;;
21943;SDS011;11136;48.778;9.126;2022-12-20T01:36:17;4.40;;;3.05;;
21943;SDS011;11136;48.778;9.126;2022-12-20T01:38:50;5.45;;;2.95;;
21943;SDS011;11136;48.778;9.126;2022-12-20T01:41:20;4.57;;;3.05;;
21943;SDS011;11136;48.778;9.126;2022-12-20T01:46:15;4.10;;;2.80;;
21943;SDS011;11136;48.778;9.126;2022-12-20T01:48:41;3.45;;;2.78;;
21943;SDS011;11136;48.778;9.126;2022-12-20T01:51:10;3.97;;;2.53;;
21943;SDS011;11136;48.778;9.126;2022-12-20T01:53:36;7.90;;;3.40;;
21943;SDS011;11136;48.778;9.126;2022-12-20T01:56:03;4.63;;;3.03;;
21943;SDS011;11136;48.778;9.126;2022-12-20T01:58:30;4.32;;;3.22;;
21943;SDS011;11136;48.778;9.126;2022-12-20T02:00:57;3.50;;;2.80;;
21943;SDS011;11136;48.778;9.126;2022-12-20T02:03:22;5.53;;;2.95;;
21943;SDS011;11136;48.778;9.126;2022-12-20T02:05:49;5.82;;;3.20;;
21943;SDS011;11136;48.778;9.126;2022-12-20T02:08:15;4.07;;;2.90;;
21943;SDS011;11136;48.778;9.126;2022-12-20T02:10:51;4.72;;;3.25;;
21943;SDS011;11136;48.778;9.126;2022-12-20T02:16:25;5.03;;;2.63;;
21943;SDS011;11136;48.778;9.126;2022-12-20T02:19:13;4.45;;;3.10;;
21943;SDS011;11136;48.778;9.126;2022-12-20T02:22:02;4.65;;;3.20;;
21943;SDS011;11136;48.778;9.126;2022-12-20T02:24:59;3.65;;;2.53;;
21943;SDS011;11136;48.778;9.126;2022-12-20T02:28:15;5.75;;;2.88;;
21943;SDS011;11136;48.778;9.126;2022-12-20T02:30:46;4.10;;;2.78;;
21943;SDS011;11136;48.778;9.126;2022-12-20T02:33:16;6.40;;;2.72;;
21943;SDS011;11136;48.778;9.126;2022-12-20T02:35:44;3.45;;;2.58;;
21943;SDS011;11136;48.778;9.126;2022-12-20T02:38:26;3.40;;;2.28;;
21943;SDS011;11136;48.778;9.126;2022-12-20T02:41:01;4.28;;;2.72;;
21943;SDS011;11136;48.778;9.126;2022-12-20T02:43:36;3.50;;;2.30;;
21943;SDS011;11136;48.778;9.126;2022-12-20T02:46:24;4.18;;;2.50;;
21943;SDS011;11136;48.778;9.126;2022-12-20T02:48:51;5.10;;;2.88;;
21943;SDS011;11136;48.778;9.126;2022-12-20T02:51:20;3.72;;;2.78;;
21943;SDS011;11136;48.778;9.126;2022-12-20T02:53:49;6.18;;;2.53;;
21943;SDS011;11136;48.778;9.126;2022-12-20T02:56:18;3.22;;;2.38;;
21943;SDS011;11136;48.778;9.126;2022-12-20T02:59:05;3.88;;;2.50;;
21943;SDS011;11136;48.778;9.126;2022-12-20T03:01:35;7.15;;;3.90;;
21943;SDS011;11136;48.778;9.126;2022-12-20T03:04:05;8.10;;;5.60;;
21943;SDS011;11136;48.778;9.126;2022-12-20T03:06:32;10.18;;;6.13;;
21943;SDS011;11136;48.778;9.126;2022-12-20T03:08:57;12.27;;;6.88;;
21943;SDS011;11136;48.778;9.126;2022-12-20T03:11:23;11.73;;;6.75;;
21943;SDS011;11136;48.778;9.126;2022-12-20T03:13:49;9.68;;;7.30;;
21943;SDS011;11136;48.778;9.126;2022-12-20T03:16:15;13.75;;;6.00;;
21943;SDS011;11136;48.778;9.126;2022-12-20T03:18:40;10.57;;;6.20;;
21943;SDS011;11136;48.778;9.126;2022-12-20T03:21:06;9.15;;;6.03;;
21943;SDS011;11136;48.778;9.126;2022-12-20T03:23:32;9.77;;;6.13;;
21943;SDS011;11136;48.778;9.126;2022-12-20T03:25:57;12.10;;;6.55;;
21943;SDS011;11136;48.778;9.126;2022-12-20T03:28:23;9.50;;;6.20;;
21943;SDS011;11136;48.778;9.126;2022-12-20T03:30:48;9.23;;;5.55;;
21943;SDS011;11136;48.778;9.126;2022-12-20T03:33:14;9.25;;;5.85;;
21943;SDS011;11136;48.778;9.126;2022-12-20T03:35:40;8.07;;;5.15;;
21943;SDS011;11136;48.778;9.126;2022-12-20T03:38:05;7.82;;;5.22;;
21943;SDS011;11136;48.778;9.126;2022-12-20T03:40:34;9.80;;;5.13;;
21943;SDS011;11136;48.778;9.126;2022-12-20T03:42:59;6.75;;;4.55;;
21943;SDS011;11136;48.778;9.126;2022-12-20T03:45:25;9.68;;;4.93;;
21943;SDS011;11136;48.778;9.126;2022-12-20T03:47:50;6.90;;;4.55;;
21943;SDS011;11136;48.778;9.126;2022-12-20T03:50:16;7.75;;;4.20;;
21943;SDS011;11136;48.778;9.126;2022-12-20T03:52:41;7.45;;;4.80;;
21943;SDS011;11136;48.778;9.126;2022-12-20T03:55:07;9.30;;;4.85;;
21943;SDS011;11136;48.778;9.126;2022-12-20T03:57:33;7.28;;;5.00;;
21943;SDS011;11136;48.778;9.126;2022-12-20T03:59:59;8.38;;;4.88;;
21943;SDS011;11136;48.778;9.126;2022-12-20T04:02:25;6.80;;;4.18;;
21943;SDS011;11136;48.778;9.126;2022-12-20T04:04:51;8.38;;;4.25;;
21943;SDS011;11136;48.778;9.126;2022-12-20T04:07:16;7.57;;;4.38;;
21943;SDS011;11136;48.778;9.126;2022-12-20T04:09:42;6.97;;;4.38;;
21943;SDS011;11136;48.778;9.126;2022-12-20T04:12:08;10.15;;;5.10;;
21943;SDS011;11136;48.778;9.126;2022-12-20T04:14:33;6.20;;;4.50;;
21943;SDS011;11136;48.778;9.126;2022-12-20T04:17:00;7.03;;;4.57;;
21943;SDS011;11136;48.778;9.126;2022-12-20T04:19:25;6.85;;;4.40;;
21943;SDS011;11136;48.778;9.126;2022-12-20T04:21:51;6.15;;;4.28;;
21943;SDS011;11136;48.778;9.126;2022-12-20T04:24:16;7.80;;;4.45;;
21943;SDS011;11136;48.778;9.126;2022-12-20T04:26:42;6.68;;;4.30;;
21943;SDS011;11136;48.778;9.126;2022-12-20T04:29:07;6.95;;;4.13;;
21943;SDS011;11136;48.778;9.126;2022-12-20T04:31:33;5.18;;;3.92;;
21943;SDS011;11136;48.778;9.126;2022-12-20T04:33:59;5.95;;;4.07;;
21943;SDS011;11136;48.778;9.126;2022-12-20T04:36:24;6.75;;;4.35;;
21943;SDS011;11136;48.778;9.126;2022-12-20T04:38:50;6.97;;;3.80;;
21943;SDS011;11136;48.778;9.126;2022-12-20T04:41:15;7.05;;;4.30;;
21943;SDS011;11136;48.778;9.126;2022-12-20T04:43:50;6.20;;;3.78;;
21943;SDS011;11136;48.778;9.126;2022-12-20T04:46:20;6.82;;;3.33;;
21943;SDS011;11136;48.778;9.126;2022-12-20T04:48:47;5.28;;;3.70;;
21943;SDS011;11136;48.778;9.126;2022-12-20T04:51:13;8.75;;;3.90;;
21943;SDS011;11136;48.778;9.126;2022-12-20T04:53:39;6.22;;;3.67;;
21943;SDS011;11136;48.778;9.126;2022-12-20T04:56:15;5.93;;;3.17;;
21943;SDS011;11136;48.778;9.126;2022-12-20T04:58:42;4.28;;;2.90;;
21943;SDS011;11136;48.778;9.126;2022-12-20T05:01:08;5.10;;;2.97;;
21943;SDS011;11136;48.778;9.126;2022-12-20T05:03:34;5.28;;;2.92;;
21943;SDS011;11136;48.778;9.126;2022-12-20T05:06:00;5.32;;;3.17;;
21943;SDS011;11136;48.778;9.126;2022-12-20T05:08:26;3.30;;;2.65;;
21943;SDS011;11136;48.778;9.126;2022-12-20T05:10:51;5.00;;;3.78;;
21943;SDS011;11136;48.778;9.126;2022-12-20T05:13:17;5.97;;;3.15;;
21943;SDS011;11136;48.778;9.126;2022-12-20T05:15:42;5.07;;;2.85;;
21943;SDS011;11136;48.778;9.126;2022-12-20T05:18:08;3.67;;;2.55;;
21943;SDS011;11136;48.778;9.126;2022-12-20T05:20:34;5.53;;;2.83;;
21943;SDS011;11136;48.778;9.126;2022-12-20T05:23:00;7.88;;;3.63;;
21943;SDS011;11136;48.778;9.126;2022-12-20T05:25:46;4.95;;;2.92;;
21943;SDS011;11136;48.778;9.126;2022-12-20T05:28:32;4.82;;;2.47;;
21943;SDS011;11136;48.778;9.126;2022-12-20T05:30:57;5.82;;;2.95;;
21943;SDS011;11136;48.778;9.126;2022-12-20T05:33:24;4.45;;;2.92;;
21943;SDS011;11136;48.778;9.126;2022-12-20T05:35:49;3.92;;;2.63;;
21943;SDS011;11136;48.778;9.126;2022-12-20T05:38:15;8.52;;;3.33;;
21943;SDS011;11136;48.778;9.126;2022-12-20T05:40:41;2.80;;;2.30;;
21943;SDS011;11136;48.778;9.126;2022-12-20T05:43:07;5.18;;;2.72;;
21943;SDS011;11136;48.778;9.126;2022-12-20T05:45:32;3.83;;;2.40;;
21943;SDS011;11136;48.778;9.126;2022-12-20T05:47:59;5.15;;;2.35;;
21943;SDS011;11136;48.778;9.126;2022-12-20T05:50:25;3.67;;;2.10;;
21943;SDS011;11136;48.778;9.126;2022-12-20T05:52:51;3.47;;;2.10;;
21943;SDS011;11136;48.778;9.126;2022-12-20T05:55:16;3.15;;;2.25;;
21943;SDS011;11136;48.778;9.126;2022-12-20T05:57:42;4.45;;;2.25;;
21943;SDS011;11136;48.778;9.126;2022-12-20T06:00:07;3.08;;;2.30;;
21943;SDS011;11136;48.778;9.126;2022-12-20T06:02:34;6.50;;;3.05;;
21943;SDS011;11136;48.778;9.126;2022-12-20T06:05:00;4.22;;;2.28;;
21943;SDS011;11136;48.778;9.126;2022-12-20T06:07:26;3.90;;;2.22;;
21943;SDS011;11136;48.778;9.126;2022-12-20T06:09:53;3.25;;;2.50;;
21943;SDS011;11136;48.778;9.126;2022-12-20T06:12:22;2.78;;;2.10;;
21943;SDS011;11136;48.778;9.126;2022-12-20T06:14:48;2.72;;;2.35;;
21943;SDS011;11136;48.778;9.126;2022-12-20T06:17:13;3.00;;;2.10;;
21943;SDS011;11136;48.778;9.126;2022-12-20T06:19:39;3.92;;;2.33;;
21943;SDS011;11136;48.778;9.126;2022-12-20T06:22:08;4.18;;;2.50;;
21943;SDS011;11136;48.778;9.126;2022-12-20T06:24:34;6.18;;;3.60;;
21943;SDS011;11136;48.778;9.126;2022-12-20T06:27:00;4.72;;;2.75;;
21943;SDS011;11136;48.778;9.126;2022-12-20T06:29:26;5.22;;;2.90;;
21943;SDS011;11136;48.778;9.126;2022-12-20T06:31:52;5.57;;;3.35;;
21943;SDS011;11136;48.778;9.126;2022-12-20T06:34:18;5.78;;;3.15;;
21943;SDS011;11136;48.778;9.126;2022-12-20T06:36:44;4.75;;;3.40;;
21943;SDS011;11136;48.778;9.126;2022-12-20T06:39:10;3.65;;;2.88;;
21943;SDS011;11136;48.778;9.126;2022-12-20T06:41:38;4.00;;;2.80;;
21943;SDS011;11136;48.778;9.126;2022-12-20T06:44:04;2.97;;;2.45;;
21943;SDS011;11136;48.778;9.126;2022-12-20T06:46:29;4.60;;;2.25;;
21943;SDS011;11136;48.778;9.126;2022-12-20T06:48:55;3.78;;;2.17;;
21943;SDS011;11136;48.778;9.126;2022-12-20T06:51:21;3.97;;;2.35;;
21943;SDS011;11136;48.778;9.126;2022-12-20T06:53:46;3.72;;;2.15;;
21943;SDS011;11136;48.778;9.126;2022-12-20T06:56:12;3.58;;;2.28;;
21943;SDS011;11136;48.778;9.126;2022-12-20T06:58:37;2.25;;;2.05;;
21943;SDS011;11136;48.778;9.126;2022-12-20T07:01:03;4.40;;;2.47;;
21943;SDS011;11136;48.778;9.126;2022-12-20T07:03:29;5.30;;;2.28;;
21943;SDS011;11136;48.778;9.126;2022-12-20T07:05:54;3.08;;;2.20;;
21943;SDS011;11136;48.778;9.126;2022-12-20T07:08:21;6.63;;;2.67;;
21943;SDS011;11136;48.778;9.126;2022-12-20T07:10:48;2.83;;;2.13;;
21943;SDS011;11136;48.778;9.126;2022-12-20T07:13:16;4.10;;;2.35;;
21943;SDS011;11136;48.778;9.126;2022-12-20T07:15:42;4.32;;;2.22;;
21943;SDS011;11136;48.778;9.126;2022-12-20T07:18:08;4.47;;;2.78;;
21943;SDS011;11136;48.778;9.126;2022-12-20T07:20:33;4.07;;;2.13;;
21943;SDS011;11136;48.778;9.126;2022-12-20T07:22:59;4.47;;;2.33;;
21943;SDS011;11136;48.778;9.126;2022-12-20T07:25:25;4.18;;;2.33;;
21943;SDS011;11136;48.778;9.126;2022-12-20T07:27:50;5.75;;;2.78;;
21943;SDS011;11136;48.778;9.126;2022-12-20T07:30:16;3.13;;;2.35;;
21943;SDS011;11136;48.778;9.126;2022-12-20T07:32:43;3.47;;;2.08;;
21943;SDS011;11136;48.778;9.126;2022-12-20T07:35:09;2.90;;;2.08;;
21943;SDS011;11136;48.778;9.126;2022-12-20T07:37:35;2.95;;;2.10;;
21943;SDS011;11136;48.778;9.126;2022-12-20T07:40:01;4.10;;;2.20;;
21943;SDS011;11136;48.778;9.126;2022-12-20T07:42:27;3.65;;;2.25;;
21943;SDS011;11136;48.778;9.126;2022-12-20T07:44:53;5.78;;;3.00;;
21943;SDS011;11136;48.778;9.126;2022-12-20T07:47:19;2.17;;;1.90;;
21943;SDS011;11136;48.778;9.126;2022-12-20T07:49:44;5.93;;;2.30;;
21943;SDS011;11136;48.778;9.126;2022-12-20T07:52:10;3.72;;;2.67;;
21943;SDS011;11136;48.778;9.126;2022-12-20T07:54:49;2.85;;;2.35;;
21943;SDS011;11136;48.778;9.126;2022-12-20T07:57:20;3.00;;;2.03;;
21943;SDS011;11136;48.778;9.126;2022-12-20T07:59:50;4.05;;;2.28;;
21943;SDS011;11136;48.778;9.126;2022-12-20T08:02:24;5.30;;;2.03;;
21943;SDS011;11136;48.778;9.126;2022-12-20T08:05:01;4.65;;;2.13;;
21943;SDS011;11136;48.778;9.126;2022-12-20T08:07:30;4.32;;;2.20;;
21943;SDS011;11136;48.778;9.126;2022-12-20T08:09:55;3.85;;;2.50;;
21943;SDS011;11136;48.778;9.126;2022-12-20T08:12:22;4.47;;;2.10;;
21943;SDS011;11136;48.778;9.126;2022-12-20T08:14:49;3.60;;;2.47;;
21943;SDS011;11136;48.778;9.126;2022-12-20T08:17:20;3.40;;;2.53;;
21943;SDS011;11136;48.778;9.126;2022-12-20T08:19:46;4.55;;;2.70;;
21943;SDS011;11136;48.778;9.126;2022-12-20T08:22:12;4.10;;;2.30;;
21943;SDS011;11136;48.778;9.126;2022-12-20T08:24:38;3.97;;;2.17;;
21943;SDS011;11136;48.778;9.126;2022-12-20T08:27:04;4.10;;;2.83;;
21943;SDS011;11136;48.778;9.126;2022-12-20T08:29:30;5.47;;;2.17;;
21943;SDS011;11136;48.778;9.126;2022-12-20T08:31:55;2.30;;;2.08;;
21943;SDS011;11136;48.778;9.126;2022-12-20T08:34:21;2.80;;;2.30;;
21943;SDS011;11136;48.778;9.126;2022-12-20T08:36:47;4.90;;;2.10;;
21943;SDS011;11136;48.778;9.126;2022-12-20T08:39:12;10.85;;;2.22;;
21943;SDS011;11136;48.778;9.126;2022-12-20T08:41:38;4.25;;;2.15;;
21943;SDS011;11136;48.778;9.126;2022-12-20T08:44:04;3.60;;;2.22;;
21943;SDS011;11136;48.778;9.126;2022-12-20T08:46:30;4.30;;;1.67;;
21943;SDS011;11136;48.778;9.126;2022-12-20T08:48:55;2.80;;;1.85;;
21943;SDS011;11136;48.778;9.126;2022-12-20T08:51:21;3.67;;;2.15;;
21943;SDS011;11136;48.778;9.126;2022-12-20T08:53:46;3.30;;;2.25;;
21943;SDS011;11136;48.778;9.126;2022-12-20T08:56:13;3.15;;;2.15;;
21943;SDS011;11136;48.778;9.126;2022-12-20T08:58:41;4.00;;;2.08;;
21943;SDS011;11136;48.778;9.126;2022-12-20T09:01:09;3.58;;;1.92;;
21943;SDS011;11136;48.778;9.126;2022-12-20T09:03:37;2.75;;;1.92;;
21943;SDS011;11136;48.778;9.126;2022-12-20T09:06:07;5.13;;;2.20;;
21943;SDS011;11136;48.778;9.126;2022-12-20T09:08:35;2.83;;;1.95;;
21943;SDS011;11136;48.778;9.126;2022-12-20T09:11:09;2.72;;;2.10;;
21943;SDS011;11136;48.778;9.126;2022-12-20T09:13:46;3.13;;;2.00;;
21943;SDS011;11136;48.778;9.126;2022-12-20T09:16:14;2.40;;;1.70;;
21943;SDS011;11136;48.778;9.126;2022-12-20T09:18:41;1.77;;;1.60;;
21943;SDS011;11136;48.778;9.126;2022-12-20T09:21:08;2.72;;;1.88;;
21943;SDS011;11136;48.778;9.126;2022-12-20T09:23:35;2.83;;;1.60;;
21943;SDS011;11136;48.778;9.126;2022-12-20T09:26:02;2.83;;;2.15;;
21943;SDS011;11136;48.778;9.126;2022-12-20T09:28:46;2.60;;;2.15;;
21943;SDS011;11136;48.778;9.126;2022-12-20T09:31:14;5.80;;;2.60;;
21943;SDS011;11136;48.778;9.126;2022-12-20T09:33:47;2.78;;;2.20;;
21943;SDS011;11136;48.778;9.126;2022-12-20T09:36:14;3.70;;;1.65;;
21943;SDS011;11136;48.778;9.126;2022-12-20T09:38:41;4.53;;;2.22;;
21943;SDS011;11136;48.778;9.126;2022-12-20T09:41:16;2.78;;;1.50;;
21943;SDS011;11136;48.778;9.126;2022-12-20T09:43:48;3.65;;;2.42;;
21943;SDS011;11136;48.778;9.126;2022-12-20T09:46:14;3.58;;;1.95;;
21943;SDS011;11136;48.778;9.126;2022-12-20T09:48:40;4.40;;;2.35;;
21943;SDS011;11136;48.778;9.126;2022-12-20T09:53:54;4.20;;;2.67;;
21943;SDS011;11136;48.778;9.126;2022-12-20T09:56:42;5.80;;;2.70;;
21943;SDS011;11136;48.778;9.126;2022-12-20T09:59:17;4.50;;;1.92;;
21943;SDS011;11136;48.778;9.126;2022-12-20T10:01:44;3.45;;;2.22;;
21943;SDS011;11136;48.778;9.126;2022-12-20T10:07:01;2.80;;;1.85;;
21943;SDS011;11136;48.778;9.126;2022-12-20T10:15:27;2.50;;;1.80;;
21943;SDS011;11136;48.778;9.126;2022-12-20T10:23:45;2.78;;;1.67;;
21943;SDS011;11136;48.778;9.126;2022-12-20T10:26:25;4.82;;;2.08;;
21943;SDS011;11136;48.778;9.126;2022-12-20T10:28:51;2.58;;;1.77;;
21943;SDS011;11136;48.778;9.126;2022-12-20T10:31:17;4.72;;;1.98;;
21943;SDS011;11136;48.778;9.126;2022-12-20T10:33:43;2.75;;;2.05;;
21943;SDS011;11136;48.778;9.126;2022-12-20T10:36:16;2.88;;;1.80;;
21943;SDS011;11136;48.778;9.126;2022-12-20T10:38:43;3.60;;;1.40;;
21943;SDS011;11136;48.778;9.126;2022-12-20T10:41:16;2.08;;;1.67;;
21943;SDS011;11136;48.778;9.126;2022-12-20T10:43:46;3.33;;;1.60;;
21943;SDS011;11136;48.778;9.126;2022-12-20T10:46:16;4.35;;;1.63;;
21943;SDS011;11136;48.778;9.126;2022-12-20T10:48:42;3.88;;;2.08;;
21943;SDS011;11136;48.778;9.126;2022-12-20T10:56:34;2.70;;;1.85;;
21943;SDS011;11136;48.778;9.126;2022-12-20T10:59:22;6.13;;;1.95;;
21943;SDS011;11136;48.778;9.126;2022-12-20T11:01:54;2.25;;;1.88;;
21943;SDS011;11136;48.778;9.126;2022-12-20T11:06:53;2.05;;;1.33;;
21943;SDS011;11136;48.778;9.126;2022-12-20T11:14:32;2.45;;;1.75;;
21943;SDS011;11136;48.778;9.126;2022-12-20T11:17:00;3.35;;;2.20;;
21943;SDS011;11136;48.778;9.126;2022-12-20T11:25:37;3.08;;;1.67;;
21943;SDS011;11136;48.778;9.126;2022-12-20T11:28:21;3.05;;;1.80;;
21943;SDS011;11136;48.778;9.126;2022-12-20T11:33:33;2.63;;;1.90;;
21943;SDS011;11136;48.778;9.126;2022-12-20T11:36:06;3.28;;;1.83;;
21943;SDS011;11136;48.778;9.126;2022-12-20T11:41:49;2.90;;;1.60;;
21943;SDS011;11136;48.778;9.126;2022-12-20T11:45:00;3.42;;;1.92;;
21943;SDS011;11136;48.778;9.126;2022-12-20T11:52:42;3.05;;;2.05;;
21943;SDS011;11136;48.778;9.126;2022-12-20T11:55:26;3.50;;;1.80;;
21943;SDS011;11136;48.778;9.126;2022-12-20T12:00:40;3.33;;;2.00;;
21943;SDS011;11136;48.778;9.126;2022-12-20T12:03:16;1.92;;;1.60;;
21943;SDS011;11136;48.778;9.126;2022-12-20T12:06:03;4.80;;;2.03;;
21943;SDS011;11136;48.778;9.126;2022-12-20T12:08:42;3.50;;;1.80;;
21943;SDS011;11136;48.778;9.126;2022-12-20T12:11:31;2.10;;;1.52;;
21943;SDS011;11136;48.778;9.126;2022-12-20T12:14:02;3.05;;;1.80;;
21943;SDS011;11136;48.778;9.126;2022-12-20T12:16:33;6.40;;;2.38;;
21943;SDS011;11136;48.778;9.126;2022-12-20T12:19:04;6.90;;;1.77;;
21943;SDS011;11136;48.778;9.126;2022-12-20T12:21:35;2.78;;;1.90;;
21943;SDS011;11136;48.778;9.126;2022-12-20T12:24:18;8.75;;;2.50;;
21943;SDS011;11136;48.778;9.126;2022-12-20T12:26:51;2.72;;;1.55;;
21943;SDS011;11136;48.778;9.126;2022-12-20T12:29:17;2.33;;;2.05;;
21943;SDS011;11136;48.778;9.126;2022-12-20T12:37:00;5.28;;;1.65;;
21943;SDS011;11136;48.778;9.126;2022-12-20T12:42:38;2.78;;;1.95;;
21943;SDS011;11136;48.778;9.126;2022-12-20T12:45:15;3.08;;;1.77;;
21943;SDS011;11136;48.778;9.126;2022-12-20T12:47:48;4.43;;;1.73;;
21943;SDS011;11136;48.778;9.126;2022-12-20T12:50:20;5.65;;;2.13;;
21943;SDS011;11136;48.778;9.126;2022-12-20T12:52:50;3.25;;;1.67;;
21943;SDS011;11136;48.778;9.126;2022-12-20T13:00:48;4.10;;;1.63;;
21943;SDS011;11136;48.778;9.126;2022-12-20T13:03:24;3.60;;;1.90;;
21943;SDS011;11136;48.778;9.126;2022-12-20T13:11:43;3.20;;;2.03;;
21943;SDS011;11136;48.778;9.126;2022-12-20T13:19:37;3.15;;;1.98;;
21943;SDS011;11136;48.778;9.126;2022-12-20T13:27:21;2.92;;;1.58;;
21943;SDS011;11136;48.778;9.126;2022-12-20T13:37:50;2.63;;;1.30;;
21943;SDS011;11136;48.778;9.126;2022-12-20T13:40:20;3.88;;;1.80;;
21943;SDS011;11136;48.778;9.126;2022-12-20T13:42:55;4.35;;;1.75;;
21943;SDS011;11136;48.778;9.126;2022-12-20T13:45:26;3.20;;;1.77;;
21943;SDS011;11136;48.778;9.126;2022-12-20T13:47:55;3.72;;;2.00;;
21943;SDS011;11136;48.778;9.126;2022-12-20T13:50:28;3.03;;;1.55;;
21943;SDS011;11136;48.778;9.126;2022-12-20T13:52:57;4.05;;;1.75;;
21943;SDS011;11136;48.778;9.126;2022-12-20T13:57:56;5.20;;;2.50;;
21943;SDS011;11136;48.778;9.126;2022-12-20T14:00:27;8.57;;;1.53;;
21943;SDS011;11136;48.778;9.126;2022-12-20T14:02:53;2.60;;;1.60;;
21943;SDS011;11136;48.778;9.126;2022-12-20T14:05:24;4.25;;;1.85;;
21943;SDS011;11136;48.778;9.126;2022-12-20T14:08:37;4.38;;;2.22;;
21943;SDS011;11136;48.778;9.126;2022-12-20T14:10:41;2.85;;;1.90;;
21943;SDS011;11136;48.778;9.126;2022-12-20T14:13:40;2.47;;;1.90;;
21943;SDS011;11136;48.778;9.126;2022-12-20T14:16:06;4.03;;;2.58;;
21943;SDS011;11136;48.778;9.126;2022-12-20T14:18:34;3.17;;;2.10;;
21943;SDS011;11136;48.778;9.126;2022-12-20T14:21:00;7.55;;;3.40;;
21943;SDS011;11136;48.778;9.126;2022-12-20T14:23:39;4.55;;;3.05;;
21943;SDS011;11136;48.778;9.126;2022-12-20T14:26:14;5.68;;;3.33;;
21943;SDS011;11136;48.778;9.126;2022-12-20T14:28:43;4.25;;;3.20;;
21943;SDS011;11136;48.778;9.126;2022-12-20T14:31:45;4.10;;;2.05;;
21943;SDS011;11136;48.778;9.126;2022-12-20T14:34:11;6.82;;;3.13;;
21943;SDS011;11136;48.778;9.126;2022-12-20T14:36:41;6.95;;;3.10;;
21943;SDS011;11136;48.778;9.126;2022-12-20T14:39:27;7.95;;;3.40;;
21943;SDS011;11136;48.778;9.126;2022-12-20T14:41:54;3.08;;;2.38;;
21943;SDS011;11136;48.778;9.126;2022-12-20T14:44:28;4.60;;;2.85;;
21943;SDS011;11136;48.778;9.126;2022-12-20T14:46:56;6.28;;;2.35;;
21943;SDS011;11136;48.778;9.126;2022-12-20T14:49:28;4.32;;;2.28;;
21943;SDS011;11136;48.778;9.126;2022-12-20T14:52:12;3.80;;;2.42;;
21943;SDS011;11136;48.778;9.126;2022-12-20T14:57:22;3.30;;;2.30;;
21943;SDS011;11136;48.778;9.126;2022-12-20T15:00:13;6.63;;;2.50;;
21943;SDS011;11136;48.778;9.126;2022-12-20T15:02:49;5.03;;;2.35;;
21943;SDS011;11136;48.778;9.126;2022-12-20T15:13:33;4.13;;;2.38;;
21943;SDS011;11136;48.778;9.126;2022-12-20T15:15:59;7.68;;;2.40;;
21943;SDS011;11136;48.778;9.126;2022-12-20T15:18:27;8.05;;;2.20;;
21943;SDS011;11136;48.778;9.126;2022-12-20T15:21:02;7.05;;;2.25;;
21943;SDS011;11136;48.778;9.126;2022-12-20T15:23:43;5.03;;;2.35;;
21943;SDS011;11136;48.778;9.126;2022-12-20T15:26:19;3.53;;;2.47;;
21943;SDS011;11136;48.778;9.126;2022-12-20T15:28:46;4.68;;;2.50;;
21943;SDS011;11136;48.778;9.126;2022-12-20T15:31:13;3.20;;;2.30;;
21943;SDS011;11136;48.778;9.126;2022-12-20T15:33:40;7.18;;;3.10;;
21943;SDS011;11136;48.778;9.126;2022-12-20T15:36:17;9.55;;;2.75;;
21943;SDS011;11136;48.778;9.126;2022-12-20T15:38:44;8.32;;;2.53;;
21943;SDS011;11136;48.778;9.126;2022-12-20T15:41:13;4.57;;;2.67;;
21943;SDS011;11136;48.778;9.126;2022-12-20T15:43:46;5.50;;;2.53;;
21943;SDS011;11136;48.778;9.126;2022-12-20T15:46:21;3.45;;;2.38;;
21943;SDS011;11136;48.778;9.126;2022-12-20T15:48:47;3.75;;;2.30;;
21943;SDS011;11136;48.778;9.126;2022-12-20T15:51:32;10.32;;;3.05;;
21943;SDS011;11136;48.778;9.126;2022-12-20T15:54:00;4.35;;;2.55;;
21943;SDS011;11136;48.778;9.126;2022-12-20T15:56:28;4.95;;;3.05;;
21943;SDS011;11136;48.778;9.126;2022-12-20T15:58:54;5.47;;;3.15;;
21943;SDS011;11136;48.778;9.126;2022-12-20T16:01:21;5.35;;;3.42;;
21943;SDS011;11136;48.778;9.126;2022-12-20T16:03:51;5.75;;;2.70;;
21943;SDS011;11136;48.778;9.126;2022-12-20T16:06:16;6.03;;;2.78;;
21943;SDS011;11136;48.778;9.126;2022-12-20T16:08:42;6.53;;;2.67;;
21943;SDS011;11136;48.778;9.126;2022-12-20T16:11:14;8.20;;;3.55;;
21943;SDS011;11136;48.778;9.126;2022-12-20T16:13:55;5.63;;;3.25;;
21943;SDS011;11136;48.778;9.126;2022-12-20T16:16:23;5.85;;;3.17;;
21943;SDS011;11136;48.778;9.126;2022-12-20T16:18:51;4.35;;;2.45;;
21943;SDS011;11136;48.778;9.126;2022-12-20T16:21:18;7.88;;;3.30;;
21943;SDS011;11136;48.778;9.126;2022-12-20T16:23:46;6.82;;;2.65;;
21943;SDS011;11136;48.778;9.126;2022-12-20T16:26:12;8.68;;;5.13;;
21943;SDS011;11136;48.778;9.126;2022-12-20T16:28:40;5.10;;;2.67;;
21943;SDS011;11136;48.778;9.126;2022-12-20T16:34:03;6.22;;;3.97;;
21943;SDS011;11136;48.778;9.126;2022-12-20T16:36:35;3.95;;;2.72;;
21943;SDS011;11136;48.778;9.126;2022-12-20T16:39:02;8.35;;;3.70;;
21943;SDS011;11136;48.778;9.126;2022-12-20T16:41:29;4.90;;;3.17;;
21943;SDS011;11136;48.778;9.126;2022-12-20T16:43:57;4.72;;;3.83;;
21943;SDS011;11136;48.778;9.126;2022-12-20T16:46:24;5.32;;;3.58;;
21943;SDS011;11136;48.778;9.126;2022-12-20T16:48:52;3.50;;;2.78;;
21943;SDS011;11136;48.778;9.126;2022-12-20T16:54:11;4.72;;;2.72;;
21943;SDS011;11136;48.778;9.126;2022-12-20T16:56:43;4.35;;;2.70;;
21943;SDS011;11136;48.778;9.126;2022-12-20T16:59:11;5.88;;;3.67;;